TimeMDT,TemperatureF,Dew PointF,Humidity,Sea Level PressureIn,VisibilityMPH,Wind Direction,Wind SpeedMPH,Gust SpeedMPH,PrecipitationIn,Events,Conditions,WindDirDegrees,DateUTC
12:56 AM,30.9,25.0,79,30.03,-9999.0,Calm,Calm,-,N/A,,Unknown,0,2013-04-28 06:56:00
1:56 AM,35.1,26.1,70,30.00,-9999.0,Calm,Calm,-,N/A,,Unknown,0,2013-04-28 07:56:00
2:56 AM,30.9,26.1,82,30.01,-9999.0,Calm,Calm,-,N/A,,Unknown,0,2013-04-28 08:56:00
3:56 AM,32.0,26.1,79,30.01,-9999.0,Calm,Calm,-,N/A,,Unknown,0,2013-04-28 09:56:00
4:56 AM,30.9,25.0,79,30.01,-9999.0,Calm,Calm,-,N/A,,Unknown,0,2013-04-28 10:56:00
5:56 AM,30.0,25.0,82,30.01,-9999.0,NW,3.5,-,N/A,,Unknown,310,2013-04-28 11:56:00
6:56 AM,32.0,26.1,79,29.99,-9999.0,Calm,Calm,-,N/A,,Unknown,0,2013-04-28 12:56:00
7:56 AM,35.1,28.0,76,30.00,-9999.0,Calm,Calm,-,N/A,,Unknown,0,2013-04-28 13:56:00
8:56 AM,42.1,21.0,43,29.97,-9999.0,West,4.6,-,N/A,,Unknown,280,2013-04-28 14:56:00
9:56 AM,39.9,25.0,55,30.02,-9999.0,WNW,8.1,19.6,N/A,,Unknown,300,2013-04-28 15:56:00
10:56 AM,37.9,28.9,70,30.07,-9999.0,Variable,5.8,-,N/A,,Unknown,0,2013-04-28 16:56:00
11:56 AM,39.9,28.9,65,30.06,-9999.0,WNW,8.1,17.3,N/A,,Unknown,300,2013-04-28 17:56:00
12:56 PM,42.1,28.0,58,30.05,-9999.0,WNW,9.2,18.4,N/A,,Unknown,300,2013-04-28 18:56:00
1:56 PM,41.0,28.9,62,30.04,-9999.0,West,9.2,-,N/A,,Unknown,280,2013-04-28 19:56:00
2:56 PM,46.0,25.0,44,30.00,-9999.0,West,8.1,20.7,N/A,,Unknown,270,2013-04-28 20:56:00
3:56 PM,46.0,27.0,47,29.99,-9999.0,Variable,6.9,-,N/A,,Unknown,0,2013-04-28 21:56:00
4:56 PM,44.1,27.0,51,29.99,-9999.0,Variable,5.8,-,N/A,,Unknown,0,2013-04-28 22:56:00
5:56 PM,45.0,25.0,46,29.96,-9999.0,Variable,4.6,-,N/A,,Unknown,0,2013-04-28 23:56:00
6:56 PM,44.1,26.1,49,29.95,-9999.0,Variable,3.5,-,N/A,,Unknown,0,2013-04-29 00:56:00
7:56 PM,39.9,30.0,68,29.95,-9999.0,Calm,Calm,-,N/A,,Unknown,0,2013-04-29 01:56:00
8:56 PM,37.0,30.9,79,29.94,-9999.0,Calm,Calm,-,N/A,,Unknown,0,2013-04-29 02:56:00
9:56 PM,35.1,30.0,82,29.95,-9999.0,Calm,Calm,-,N/A,,Unknown,0,2013-04-29 03:56:00
10:56 PM,34.0,30.0,85,29.96,-9999.0,Calm,Calm,-,N/A,,Unknown,0,2013-04-29 04:56:00
11:56 PM,30.0,28.0,92,29.95,-9999.0,Calm,Calm,-,N/A,,Unknown,0,2013-04-29 05:56:00